Time;durP1;ratioP1;P1;durP2;ratioP2;P2;SDS_P1;SDS_P2;PMS_P1;PMS_P2;Temp;Humidity;BMP_temperature;BMP_pressure;BME280_temperature;BME280_humidity;BME280_pressure;Samples;Min_cycle;Max_cycle;Signal;HPM_P1;HPM_P2
2021/03/03 00:01:04;;;;;;;23.60;16.70;;;;;;;;;;5036854;28;20343;-70
2021/03/03 00:03:30;;;;;;;25.00;15.73;;;;;;;;;;5036736;28;20022;-70
2021/03/03 00:05:55;;;;;;;22.38;17.48;;;;;;;;;;5036745;28;20029;-70
2021/03/03 00:08:20;;;;;;;22.35;16.08;;;;;;;;;;5036734;28;20037;-70
2021/03/03 00:10:45;;;;;;;25.10;16.48;;;;;;;;;;5036663;28;20351;-69
2021/03/03 00:13:10;;;;;;;22.45;15.18;;;;;;;;;;5050834;28;20056;-70
2021/03/03 00:15:36;;;;;;;26.60;15.57;;;;;;;;;;5055640;28;20134;-70
2021/03/03 00:18:01;;;;;;;24.35;16.38;;;;;;;;;;5056321;28;20409;-70
2021/03/03 00:20:28;;;;;;;24.42;16.30;;;;;;;;;;5053510;28;20035;-70
2021/03/03 00:22:54;;;;;;;23.98;16.02;;;;;;;;;;5046498;28;20414;-70
2021/03/03 00:25:19;;;;;;;20.85;15.43;;;;;;;;;;5056237;28;20103;-70
2021/03/03 00:27:44;;;;;;;24.55;15.70;;;;;;;;;;5056266;28;20021;-70
2021/03/03 00:30:12;;;;;;;19.38;15.30;;;;;;;;;;5056123;28;20036;-70
2021/03/03 00:32:38;;;;;;;21.88;16.27;;;;;;;;;;5055298;28;20017;-70
2021/03/03 00:35:03;;;;;;;23.58;15.65;;;;;;;;;;5056022;28;20017;-69
2021/03/03 00:37:31;;;;;;;22.33;14.48;;;;;;;;;;5055921;28;20334;-70
2021/03/03 00:39:56;;;;;;;26.05;16.58;;;;;;;;;;5054929;28;20047;-70
2021/03/03 00:42:23;;;;;;;25.83;17.23;;;;;;;;;;5055926;28;20455;-70
2021/03/03 00:44:49;;;;;;;24.02;15.80;;;;;;;;;;5055690;28;20078;-71
2021/03/03 00:47:14;;;;;;;22.48;15.82;;;;;;;;;;5054802;28;20431;-70
2021/03/03 00:49:41;;;;;;;22.17;15.52;;;;;;;;;;5055731;28;20013;-70
2021/03/03 00:52:09;;;;;;;25.23;16.48;;;;;;;;;;5055193;28;20513;-70
2021/03/03 00:54:34;;;;;;;22.17;16.30;;;;;;;;;;5055679;28;20029;-69
2021/03/03 00:56:59;;;;;;;22.20;16.20;;;;;;;;;;5055582;28;20017;-70
2021/03/03 00:59:24;;;;;;;26.50;17.33;;;;;;;;;;5055756;28;20029;-70
2021/03/03 01:01:49;;;;;;;22.13;16.42;;;;;;;;;;5055890;28;20099;-69
2021/03/03 01:04:15;;;;;;;24.63;16.90;;;;;;;;;;5054551;28;20460;-69
2021/03/03 01:06:42;;;;;;;30.20;17.70;;;;;;;;;;5055554;28;20040;-70
2021/03/03 01:09:07;;;;;;;27.20;17.63;;;;;;;;;;5055595;28;20017;-69
2021/03/03 01:11:32;;;;;;;27.88;16.70;;;;;;;;;;5054564;28;20032;-71
2021/03/03 01:14:00;;;;;;;23.67;16.52;;;;;;;;;;5055480;28;20028;-70
2021/03/03 01:16:26;;;;;;;24.02;16.85;;;;;;;;;;5055364;28;20048;-70
2021/03/03 01:18:51;;;;;;;23.13;16.48;;;;;;;;;;5054475;28;20032;-70
2021/03/03 01:21:16;;;;;;;27.17;16.88;;;;;;;;;;5055656;28;20028;-70
2021/03/03 01:23:41;;;;;;;26.38;17.10;;;;;;;;;;5054318;28;20036;-71
2021/03/03 01:26:06;;;;;;;23.10;16.50;;;;;;;;;;5054299;28;20424;-69
2021/03/03 01:28:32;;;;;;;24.75;16.67;;;;;;;;;;5055239;28;20357;-68
2021/03/03 01:30:59;;;;;;;25.05;17.00;;;;;;;;;;5055294;28;20341;-70
2021/03/03 01:33:28;;;;;;;23.23;16.63;;;;;;;;;;5055275;28;20453;-70
2021/03/03 01:35:54;;;;;;;27.85;17.63;;;;;;;;;;5055124;28;20061;-70
2021/03/03 01:38:19;;;;;;;21.10;16.42;;;;;;;;;;5055090;28;20048;-70
2021/03/03 01:40:45;;;;;;;26.27;18.15;;;;;;;;;;5055044;28;20483;-70
2021/03/03 01:43:10;;;;;;;27.02;17.80;;;;;;;;;;5054881;28;20021;-70
2021/03/03 01:45:35;;;;;;;27.55;18.75;;;;;;;;;;5054801;28;20025;-70
2021/03/03 01:48:01;;;;;;;29.70;18.40;;;;;;;;;;5054684;28;20062;-70
2021/03/03 01:50:26;;;;;;;25.60;17.77;;;;;;;;;;5054643;28;20020;-70
2021/03/03 01:52:51;;;;;;;26.52;18.65;;;;;;;;;;5054678;28;20021;-70
2021/03/03 01:55:16;;;;;;;34.85;18.92;;;;;;;;;;5054584;28;20025;-70
2021/03/03 01:57:42;;;;;;;26.05;17.85;;;;;;;;;;5053726;28;20029;-70
2021/03/03 02:00:07;;;;;;;32.00;18.75;;;;;;;;;;5054501;28;20032;-70
2021/03/03 02:02:32;;;;;;;30.23;18.60;;;;;;;;;;5053545;28;20397;-70
2021/03/03 02:04:58;;;;;;;30.45;19.63;;;;;;;;;;5053870;28;20028;-70
2021/03/03 02:07:36;;;;;;;30.77;18.50;;;;;;;;;;5054443;28;20085;-69
2021/03/03 02:10:05;;;;;;;32.97;18.70;;;;;;;;;;5053573;28;20180;-69
2021/03/03 02:12:52;;;;;;;26.10;19.52;;;;;;;;;;5053479;28;20012;-70
2021/03/03 02:15:19;;;;;;;26.45;19.00;;;;;;;;;;5054357;28;20041;-68
2021/03/03 02:17:45;;;;;;;28.90;19.15;;;;;;;;;;5053708;28;20025;-69
2021/03/03 02:20:11;;;;;;;31.67;19.48;;;;;;;;;;5054820;28;20032;-69
2021/03/03 02:22:51;;;;;;;29.23;19.60;;;;;;;;;;5054476;28;20036;-69
2021/03/03 02:25:32;;;;;;;32.40;20.92;;;;;;;;;;5054430;28;20024;-70
2021/03/03 02:28:05;;;;;;;26.98;19.58;;;;;;;;;;5054152;28;20036;-69
2021/03/03 02:30:30;;;;;;;31.77;20.25;;;;;;;;;;5054477;28;20035;-70
2021/03/03 02:32:56;;;;;;;29.95;19.77;;;;;;;;;;5054766;28;20429;-69
2021/03/03 02:35:22;;;;;;;29.05;19.63;;;;;;;;;;5054896;28;20469;-69
2021/03/03 02:37:47;;;;;;;27.77;21.08;;;;;;;;;;5054291;28;20055;-68
2021/03/03 02:40:14;;;;;;;30.50;19.08;;;;;;;;;;5048256;28;20021;-69
2021/03/03 02:42:40;;;;;;;29.40;20.40;;;;;;;;;;5047573;28;20028;-69
2021/03/03 02:45:13;;;;;;;27.35;20.25;;;;;;;;;;5027936;28;20025;-69
2021/03/03 02:47:39;;;;;;;28.83;18.80;;;;;;;;;;5025472;28;20346;-69
2021/03/03 02:50:08;;;;;;;25.73;19.13;;;;;;;;;;5017527;28;20017;-69
2021/03/03 02:52:53;;;;;;;25.33;18.65;;;;;;;;;;5033943;28;20450;-68
2021/03/03 02:55:19;;;;;;;27.23;18.65;;;;;;;;;;5032380;28;20037;-70
2021/03/03 02:57:45;;;;;;;29.85;19.45;;;;;;;;;;5033610;28;20116;-69
2021/03/03 03:00:14;;;;;;;26.17;19.70;;;;;;;;;;5033553;28;20067;-70
2021/03/03 03:02:41;;;;;;;26.65;18.60;;;;;;;;;;5033481;28;20109;-69
2021/03/03 03:05:07;;;;;;;29.05;18.10;;;;;;;;;;5016052;28;20025;-70
2021/03/03 03:07:35;;;;;;;28.05;19.60;;;;;;;;;;5033551;28;20049;-70
2021/03/03 03:10:03;;;;;;;28.10;18.88;;;;;;;;;;5016143;28;20428;-70
2021/03/03 03:12:29;;;;;;;27.52;19.70;;;;;;;;;;5033537;28;20095;-70
2021/03/03 03:14:57;;;;;;;30.33;18.95;;;;;;;;;;5033026;28;20108;-69
2021/03/03 03:17:27;;;;;;;29.98;19.15;;;;;;;;;;5033546;28;20041;-70
2021/03/03 03:19:54;;;;;;;28.67;19.17;;;;;;;;;;5033333;28;20025;-69
2021/03/03 03:22:21;;;;;;;26.88;19.42;;;;;;;;;;5033623;28;20383;-69
2021/03/03 03:24:47;;;;;;;29.15;19.10;;;;;;;;;;5033400;28;20024;-69
2021/03/03 03:27:15;;;;;;;28.00;19.30;;;;;;;;;;5033367;28;20124;-69
2021/03/03 03:29:41;;;;;;;26.52;18.90;;;;;;;;;;5033440;28;20049;-69
2021/03/03 03:32:07;;;;;;;28.17;19.50;;;;;;;;;;5033399;28;20052;-69
2021/03/03 03:34:33;;;;;;;29.50;19.63;;;;;;;;;;5019576;28;20030;-69
2021/03/03 03:36:59;;;;;;;26.63;19.30;;;;;;;;;;5017287;28;20446;-69
2021/03/03 03:39:27;;;;;;;33.22;20.13;;;;;;;;;;5033290;28;20044;-70
2021/03/03 03:41:52;;;;;;;31.55;19.98;;;;;;;;;;5015856;28;20112;-70
2021/03/03 03:44:18;;;;;;;29.88;19.73;;;;;;;;;;5033179;28;20124;-70
2021/03/03 03:46:44;;;;;;;30.27;20.83;;;;;;;;;;5033238;28;20032;-70
2021/03/03 03:49:09;;;;;;;30.27;20.08;;;;;;;;;;5033246;28;20018;-69
2021/03/03 03:51:38;;;;;;;31.48;19.00;;;;;;;;;;5033455;28;20041;-69
2021/03/03 03:54:06;;;;;;;30.92;19.40;;;;;;;;;;5033177;28;20018;-69
2021/03/03 03:56:31;;;;;;;33.60;19.80;;;;;;;;;;5033183;28;20025;-70
2021/03/03 03:58:58;;;;;;;31.63;20.02;;;;;;;;;;5015645;28;20025;-70
2021/03/03 04:01:24;;;;;;;32.20;21.25;;;;;;;;;;5032897;28;20041;-70
2021/03/03 04:03:49;;;;;;;30.00;19.42;;;;;;;;;;5032894;28;20021;-69
2021/03/03 04:06:14;;;;;;;27.33;18.92;;;;;;;;;;5032961;28;20399;-70
2021/03/03 04:08:39;;;;;;;32.00;20.58;;;;;;;;;;5032900;28;20493;-69
2021/03/03 04:11:04;;;;;;;30.95;20.65;;;;;;;;;;5032934;28;20018;-70
2021/03/03 04:13:30;;;;;;;31.90;20.25;;;;;;;;;;5033002;28;20315;-71
2021/03/03 04:16:00;;;;;;;32.08;21.40;;;;;;;;;;5032770;28;20107;-71
2021/03/03 04:18:27;;;;;;;28.30;19.92;;;;;;;;;;5032983;28;20029;-70
2021/03/03 04:20:54;;;;;;;28.25;19.95;;;;;;;;;;5033036;28;20174;-72
2021/03/03 04:23:22;;;;;;;28.42;19.80;;;;;;;;;;5032787;28;20280;-70
2021/03/03 04:25:47;;;;;;;31.75;20.45;;;;;;;;;;5032836;28;20021;-69
2021/03/03 04:28:13;;;;;;;30.05;20.83;;;;;;;;;;5035880;28;20452;-69
2021/03/03 04:30:38;;;;;;;28.80;19.90;;;;;;;;;;5036368;28;20451;-69
2021/03/03 04:33:03;;;;;;;29.30;19.70;;;;;;;;;;5036312;28;20025;-68
2021/03/03 04:35:30;;;;;;;27.95;20.27;;;;;;;;;;5036345;28;20033;-69
2021/03/03 04:37:58;;;;;;;32.03;19.95;;;;;;;;;;5036377;28;20033;-69
2021/03/03 04:40:23;;;;;;;30.52;20.15;;;;;;;;;;5018870;28;20025;-70
2021/03/03 04:42:48;;;;;;;27.83;19.65;;;;;;;;;;5036148;28;20036;-69
2021/03/03 04:45:14;;;;;;;31.52;19.95;;;;;;;;;;5035966;28;20021;-69
2021/03/03 04:47:39;;;;;;;27.95;19.52;;;;;;;;;;5018777;28;20029;-68
2021/03/03 04:50:05;;;;;;;31.58;20.23;;;;;;;;;;5036053;28;20029;-71
2021/03/03 04:52:31;;;;;;;28.92;20.13;;;;;;;;;;5018688;28;20457;-70
2021/03/03 04:54:58;;;;;;;30.45;19.67;;;;;;;;;;5035989;28;20026;-69
2021/03/03 04:57:23;;;;;;;27.67;20.33;;;;;;;;;;5018556;28;20391;-69
2021/03/03 04:59:48;;;;;;;32.67;21.33;;;;;;;;;;5035957;28;20057;-68
2021/03/03 05:02:14;;;;;;;30.52;20.75;;;;;;;;;;5035652;28;20090;-68
2021/03/03 05:04:39;;;;;;;30.65;19.92;;;;;;;;;;5035763;28;20072;-69
2021/03/03 05:07:04;;;;;;;27.95;19.73;;;;;;;;;;5035757;28;20028;-69
2021/03/03 05:09:29;;;;;;;26.75;19.55;;;;;;;;;;5018257;28;20430;-69
2021/03/03 05:11:54;;;;;;;29.27;20.15;;;;;;;;;;5035482;28;20025;-70
2021/03/03 05:14:20;;;;;;;30.92;20.83;;;;;;;;;;5035529;28;20431;-70
2021/03/03 05:16:45;;;;;;;27.80;19.77;;;;;;;;;;5035353;28;20493;-69
2021/03/03 05:19:13;;;;;;;33.83;20.55;;;;;;;;;;5035304;28;20021;-70
2021/03/03 05:21:38;;;;;;;30.30;20.33;;;;;;;;;;5017811;28;20021;-69
2021/03/03 05:24:04;;;;;;;30.60;20.38;;;;;;;;;;5035249;28;20087;-69
2021/03/03 05:26:29;;;;;;;26.13;18.95;;;;;;;;;;5017867;28;20112;-71
2021/03/03 05:28:54;;;;;;;28.80;18.90;;;;;;;;;;5017693;28;20132;-69
2021/03/03 05:31:19;;;;;;;30.88;19.52;;;;;;;;;;5017956;28;20033;-69
2021/03/03 05:33:45;;;;;;;30.05;20.52;;;;;;;;;;5035255;28;20033;-68
2021/03/03 05:36:13;;;;;;;24.85;18.90;;;;;;;;;;5035150;28;20021;-69
2021/03/03 05:38:40;;;;;;;28.15;20.00;;;;;;;;;;5035265;28;20324;-71
2021/03/03 05:41:06;;;;;;;30.92;19.65;;;;;;;;;;5035080;28;20025;-70
2021/03/03 05:43:32;;;;;;;25.70;19.15;;;;;;;;;;5017365;28;20029;-71
2021/03/03 05:46:00;;;;;;;30.55;20.48;;;;;;;;;;5035369;28;20039;-70
2021/03/03 05:48:29;;;;;;;30.23;20.02;;;;;;;;;;5035140;28;20119;-70
2021/03/03 05:50:56;;;;;;;34.72;19.75;;;;;;;;;;5034976;28;20021;-71
2021/03/03 05:53:22;;;;;;;25.83;19.27;;;;;;;;;;5017431;28;20460;-70
2021/03/03 05:55:47;;;;;;;27.35;19.70;;;;;;;;;;5034861;28;20017;-70
2021/03/03 05:58:12;;;;;;;28.05;19.55;;;;;;;;;;5034764;28;20049;-70
2021/03/03 06:00:38;;;;;;;28.30;20.58;;;;;;;;;;5034786;28;20109;-69
2021/03/03 06:03:07;;;;;;;28.40;18.70;;;;;;;;;;5034822;28;20025;-70
2021/03/03 06:05:32;;;;;;;26.80;18.35;;;;;;;;;;5034598;28;20049;-70
2021/03/03 06:07:58;;;;;;;27.88;20.35;;;;;;;;;;5034928;28;20028;-70
2021/03/03 06:10:26;;;;;;;29.75;19.48;;;;;;;;;;5058276;28;20021;-71
2021/03/03 06:12:51;;;;;;;26.80;19.83;;;;;;;;;;5056692;28;20020;-70
2021/03/03 06:15:16;;;;;;;27.10;18.88;;;;;;;;;;5036687;28;20061;-70
2021/03/03 06:17:42;;;;;;;32.20;19.58;;;;;;;;;;5053315;28;20480;-70
2021/03/03 06:20:09;;;;;;;27.58;18.88;;;;;;;;;;5049518;28;20135;-70
2021/03/03 06:22:34;;;;;;;29.13;19.77;;;;;;;;;;5054313;28;20060;-70
2021/03/03 06:25:01;;;;;;;32.47;20.02;;;;;;;;;;5034789;28;20457;-70
2021/03/03 06:27:36;;;;;;;28.17;19.65;;;;;;;;;;5037620;28;20021;-70
2021/03/03 06:30:11;;;;;;;29.27;19.70;;;;;;;;;;5044434;28;20025;-70
2021/03/03 06:32:55;;;;;;;28.75;19.75;;;;;;;;;;5016911;28;20013;-70
2021/03/03 06:35:20;;;;;;;29.05;19.45;;;;;;;;;;5034158;28;20099;-71
2021/03/03 06:37:53;;;;;;;31.52;20.65;;;;;;;;;;5034222;28;20168;-70
2021/03/03 06:40:18;;;;;;;34.60;20.25;;;;;;;;;;5034135;28;20465;-71
2021/03/03 06:42:43;;;;;;;31.23;20.52;;;;;;;;;;5034197;28;20013;-70
2021/03/03 06:45:10;;;;;;;30.50;20.45;;;;;;;;;;5034086;28;20022;-71
2021/03/03 06:47:48;;;;;;;31.73;21.27;;;;;;;;;;5033969;28;20017;-70
2021/03/03 06:50:14;;;;;;;28.92;20.65;;;;;;;;;;5033557;28;20035;-71
2021/03/03 06:52:39;;;;;;;31.13;20.40;;;;;;;;;;5033962;28;20088;-71
2021/03/03 06:55:07;;;;;;;27.65;20.25;;;;;;;;;;5016520;28;20480;-71
2021/03/03 06:57:32;;;;;;;34.17;20.45;;;;;;;;;;5034055;28;20025;-70
2021/03/03 06:59:57;;;;;;;31.27;19.63;;;;;;;;;;5033914;28;20100;-71
2021/03/03 07:02:28;;;;;;;30.48;20.88;;;;;;;;;;5038121;28;20100;-70
2021/03/03 07:04:57;;;;;;;29.90;20.02;;;;;;;;;;5034505;28;20353;-70
2021/03/03 07:07:22;;;;;;;29.27;21.05;;;;;;;;;;5040165;28;20029;-69
2021/03/03 07:09:49;;;;;;;35.38;21.05;;;;;;;;;;5048406;28;20021;-69
2021/03/03 07:12:21;;;;;;;26.60;20.17;;;;;;;;;;5043450;28;20461;-69
2021/03/03 07:14:55;;;;;;;32.53;20.88;;;;;;;;;;5033792;28;20025;-70
2021/03/03 07:17:26;;;;;;;31.08;21.02;;;;;;;;;;5032569;28;20065;-69
2021/03/03 07:19:52;;;;;;;33.25;20.48;;;;;;;;;;5033709;28;20021;-70
2021/03/03 07:22:31;;;;;;;31.50;20.85;;;;;;;;;;5033926;28;20465;-70
2021/03/03 07:25:00;;;;;;;39.97;21.55;;;;;;;;;;5033507;28;20104;-70
2021/03/03 07:27:25;;;;;;;31.20;21.15;;;;;;;;;;5033616;28;20036;-69
2021/03/03 07:30:04;;;;;;;37.22;20.17;;;;;;;;;;5033565;28;20025;-69
2021/03/03 07:32:29;;;;;;;29.45;20.25;;;;;;;;;;5032449;28;20438;-70
2021/03/03 07:34:57;;;;;;;33.90;21.60;;;;;;;;;;5016021;28;20026;-70
2021/03/03 07:37:24;;;;;;;28.98;21.15;;;;;;;;;;5033492;28;20112;-70
2021/03/03 07:40:00;;;;;;;29.58;20.05;;;;;;;;;;5033444;28;20087;-71
2021/03/03 07:42:29;;;;;;;31.25;20.77;;;;;;;;;;5034297;28;20088;-70
2021/03/03 07:44:55;;;;;;;29.38;21.35;;;;;;;;;;5047133;28;20076;-70
2021/03/03 07:47:23;;;;;;;33.00;22.02;;;;;;;;;;5038629;28;20025;-70
2021/03/03 07:49:49;;;;;;;34.13;21.67;;;;;;;;;;5048385;28;20034;-71
2021/03/03 07:52:17;;;;;;;33.67;22.08;;;;;;;;;;5040732;28;20028;-71
2021/03/03 07:54:42;;;;;;;31.20;22.67;;;;;;;;;;5052798;28;20021;-69
2021/03/03 07:57:09;;;;;;;40.53;24.38;;;;;;;;;;5035229;28;20029;-71
2021/03/03 07:59:34;;;;;;;29.58;21.30;;;;;;;;;;5020516;28;20045;-70
2021/03/03 08:02:00;;;;;;;33.05;21.15;;;;;;;;;;5024224;28;20025;-70
2021/03/03 08:04:39;;;;;;;31.80;21.45;;;;;;;;;;5031730;28;20022;-71
2021/03/03 08:07:21;;;;;;;30.35;20.25;;;;;;;;;;5045848;28;20055;-71
2021/03/03 08:10:05;;;;;;;33.05;21.45;;;;;;;;;;5057046;28;20085;-71
2021/03/03 08:12:32;;;;;;;31.90;21.13;;;;;;;;;;5057423;28;20048;-71
2021/03/03 08:14:58;;;;;;;33.28;21.75;;;;;;;;;;5056927;28;20032;-70
2021/03/03 08:17:26;;;;;;;33.65;21.25;;;;;;;;;;5056923;28;20522;-70
2021/03/03 08:19:52;;;;;;;28.42;20.95;;;;;;;;;;5056879;28;20052;-71
2021/03/03 08:22:19;;;;;;;32.33;21.65;;;;;;;;;;5057021;28;20032;-70
2021/03/03 08:24:44;;;;;;;30.33;21.77;;;;;;;;;;5056690;28;20024;-71
2021/03/03 08:27:30;;;;;;;29.85;20.60;;;;;;;;;;5056788;28;20086;-71
2021/03/03 08:30:21;;;;;;;28.40;19.33;;;;;;;;;;5056123;28;20382;-72
2021/03/03 08:32:47;;;;;;;28.23;20.30;;;;;;;;;;5053316;28;20025;-70
2021/03/03 08:35:15;;;;;;;35.60;21.73;;;;;;;;;;5056379;28;20033;-72
2021/03/03 08:37:40;;;;;;;32.85;21.23;;;;;;;;;;5056409;28;20029;-71
2021/03/03 08:40:27;;;;;;;34.78;22.20;;;;;;;;;;5056444;28;20025;-71
2021/03/03 08:42:52;;;;;;;29.83;19.63;;;;;;;;;;5056324;28;20033;-72
2021/03/03 08:45:18;;;;;;;33.40;23.60;;;;;;;;;;5056358;28;20025;-71
2021/03/03 08:47:47;;;;;;;29.38;22.02;;;;;;;;;;5056199;28;20025;-70
2021/03/03 08:50:31;;;;;;;35.35;21.67;;;;;;;;;;5056256;28;20484;-71
2021/03/03 08:53:18;;;;;;;27.77;20.23;;;;;;;;;;5055694;28;20032;-71
2021/03/03 08:55:43;;;;;;;34.75;20.85;;;;;;;;;;5029324;28;20075;-71
2021/03/03 08:58:27;;;;;;;33.38;21.17;;;;;;;;;;5037418;28;20056;-72
2021/03/03 09:00:55;;;;;;;28.27;20.65;;;;;;;;;;5055960;28;20396;-72
2021/03/03 09:03:20;;;;;;;29.48;20.48;;;;;;;;;;5055253;28;20025;-72
2021/03/03 09:05:46;;;;;;;27.90;19.88;;;;;;;;;;5037518;28;20036;-73
2021/03/03 09:08:21;;;;;;;29.35;19.42;;;;;;;;;;5037205;28;20508;-72
2021/03/03 09:10:49;;;;;;;28.73;20.27;;;;;;;;;;5036070;28;20442;-71
2021/03/03 09:13:27;;;;;;;29.63;19.25;;;;;;;;;;5035873;28;20025;-70
2021/03/03 09:16:06;;;;;;;32.17;20.63;;;;;;;;;;5034094;28;20132;-71
2021/03/03 09:18:34;;;;;;;30.33;19.45;;;;;;;;;;5035533;28;20040;-71
2021/03/03 09:21:14;;;;;;;29.52;19.00;;;;;;;;;;5035584;28;20022;-70
2021/03/03 09:23:39;;;;;;;31.67;19.08;;;;;;;;;;5038255;28;20025;-73
2021/03/03 09:26:19;;;;;;;29.85;19.33;;;;;;;;;;5035713;28;20033;-70
2021/03/03 09:28:45;;;;;;;27.60;18.60;;;;;;;;;;5035510;28;20022;-71
2021/03/03 09:31:27;;;;;;;27.60;19.42;;;;;;;;;;5046440;28;20032;-74
2021/03/03 09:33:52;;;;;;;24.60;18.58;;;;;;;;;;5055419;28;20021;-74
2021/03/03 09:36:17;;;;;;;29.73;20.40;;;;;;;;;;5037691;28;20017;-71
2021/03/03 09:38:54;;;;;;;32.33;23.38;;;;;;;;;;5055291;28;20083;-71
2021/03/03 09:41:21;;;;;;;38.03;24.67;;;;;;;;;;5053403;28;20036;-72
2021/03/03 09:44:09;;;;;;;33.17;24.40;;;;;;;;;;5054359;28;20017;-72
2021/03/03 09:46:50;;;;;;;35.42;24.52;;;;;;;;;;5054793;28;20432;-72
2021/03/03 09:49:25;;;;;;;36.47;22.45;;;;;;;;;;5049312;28;20034;-73
2021/03/03 09:51:51;;;;;;;33.73;23.07;;;;;;;;;;5034779;28;20058;-72
2021/03/03 09:54:25;;;;;;;32.00;21.42;;;;;;;;;;5054378;28;20353;-73
2021/03/03 09:56:50;;;;;;;38.63;22.95;;;;;;;;;;5054653;28;20029;-72
2021/03/03 09:59:18;;;;;;;28.13;20.60;;;;;;;;;;5054929;28;20427;-72
2021/03/03 10:01:43;;;;;;;31.88;20.40;;;;;;;;;;5036442;28;20082;-73
2021/03/03 10:04:09;;;;;;;31.05;19.98;;;;;;;;;;5032497;28;20029;-71
2021/03/03 10:06:34;;;;;;;37.67;25.70;;;;;;;;;;5035870;28;20029;-70
2021/03/03 10:09:02;;;;;;;28.67;19.58;;;;;;;;;;5037056;28;20477;-72
2021/03/03 10:11:28;;;;;;;30.33;19.70;;;;;;;;;;5034654;28;20088;-71
2021/03/03 10:14:06;;;;;;;24.58;18.10;;;;;;;;;;5034367;28;20163;-72
2021/03/03 10:16:31;;;;;;;27.98;18.52;;;;;;;;;;5034086;28;20374;-70
2021/03/03 10:19:00;;;;;;;26.27;17.08;;;;;;;;;;5034201;28;20027;-71
2021/03/03 10:21:25;;;;;;;24.80;17.63;;;;;;;;;;5033384;28;20021;-71
2021/03/03 10:23:51;;;;;;;27.83;17.65;;;;;;;;;;5051384;28;20044;-70
2021/03/03 10:26:16;;;;;;;24.05;16.65;;;;;;;;;;5050475;28;20416;-70
2021/03/03 10:28:41;;;;;;;27.00;17.08;;;;;;;;;;5053503;28;20023;-70
2021/03/03 10:31:15;;;;;;;21.08;15.38;;;;;;;;;;5051890;28;20051;-72
2021/03/03 10:33:43;;;;;;;23.58;15.75;;;;;;;;;;5054225;28;20246;-70
2021/03/03 10:36:15;;;;;;;28.63;17.27;;;;;;;;;;5054130;28;20024;-70
2021/03/03 10:38:48;;;;;;;24.70;16.88;;;;;;;;;;5054089;28;20504;-71
2021/03/03 10:41:40;;;;;;;25.88;16.25;;;;;;;;;;5053163;28;20398;-70
2021/03/03 10:44:08;;;;;;;26.38;15.70;;;;;;;;;;5050194;28;20033;-70
2021/03/03 10:46:42;;;;;;;22.10;15.30;;;;;;;;;;5053249;28;20430;-70
2021/03/03 10:49:18;;;;;;;24.63;16.50;;;;;;;;;;5050482;28;20154;-71
2021/03/03 10:51:43;;;;;;;26.45;15.90;;;;;;;;;;5037290;28;20045;-69
2021/03/03 10:54:09;;;;;;;28.45;15.90;;;;;;;;;;5053499;28;20059;-70
2021/03/03 10:56:39;;;;;;;24.05;15.48;;;;;;;;;;5053203;28;20079;-71
2021/03/03 10:59:09;;;;;;;23.58;14.38;;;;;;;;;;5042757;28;20029;-71
2021/03/03 11:01:51;;;;;;;18.48;14.90;;;;;;;;;;5033362;28;20346;-69
2021/03/03 11:04:16;;;;;;;19.85;15.00;;;;;;;;;;5015700;28;20450;-69
2021/03/03 11:06:44;;;;;;;23.65;15.75;;;;;;;;;;5015571;28;20060;-69
2021/03/03 11:09:11;;;;;;;21.58;14.93;;;;;;;;;;5015905;28;20017;-70
2021/03/03 11:11:49;;;;;;;23.05;15.10;;;;;;;;;;5015828;28;20117;-69
2021/03/03 11:14:17;;;;;;;20.65;14.00;;;;;;;;;;5033361;28;20647;-69
2021/03/03 11:16:45;;;;;;;24.63;14.90;;;;;;;;;;5015760;28;20064;-69
2021/03/03 11:19:10;;;;;;;20.38;14.80;;;;;;;;;;5033382;28;20314;-69
2021/03/03 11:21:35;;;;;;;28.60;14.90;;;;;;;;;;5016040;28;20105;-69
2021/03/03 11:24:01;;;;;;;23.17;15.05;;;;;;;;;;5033411;28;20371;-69
2021/03/03 11:26:28;;;;;;;26.42;14.88;;;;;;;;;;5015938;28;20025;-70
2021/03/03 11:28:54;;;;;;;24.00;14.82;;;;;;;;;;5033392;28;20083;-70
2021/03/03 11:31:19;;;;;;;26.63;15.18;;;;;;;;;;5033331;28;20018;-70
2021/03/03 11:33:46;;;;;;;21.03;14.30;;;;;;;;;;5033348;28;20453;-71
2021/03/03 11:36:12;;;;;;;24.88;15.32;;;;;;;;;;5035274;28;20260;-71
2021/03/03 11:38:41;;;;;;;28.77;15.65;;;;;;;;;;5043404;28;20136;-70
2021/03/03 11:41:09;;;;;;;22.40;15.68;;;;;;;;;;5035552;28;20037;-70
2021/03/03 11:43:34;;;;;;;23.33;15.77;;;;;;;;;;5035741;28;20018;-70
2021/03/03 11:45:59;;;;;;;22.47;14.67;;;;;;;;;;5037000;28;20022;-70
2021/03/03 11:48:25;;;;;;;22.17;15.47;;;;;;;;;;5037374;28;20477;-70
2021/03/03 11:50:50;;;;;;;23.23;15.00;;;;;;;;;;5037190;28;20636;-70
2021/03/03 11:53:15;;;;;;;26.77;15.60;;;;;;;;;;5037218;28;20466;-70
2021/03/03 11:55:40;;;;;;;25.77;15.90;;;;;;;;;;5037109;28;20640;-70
2021/03/03 11:58:05;;;;;;;25.27;16.20;;;;;;;;;;5036726;28;20271;-71
2021/03/03 12:00:33;;;;;;;21.77;16.37;;;;;;;;;;5037039;28;20043;-71
2021/03/03 12:02:58;;;;;;;20.75;16.40;;;;;;;;;;5039527;28;20343;-71
2021/03/03 12:05:26;;;;;;;27.70;16.03;;;;;;;;;;5046268;28;20128;-71
2021/03/03 12:07:51;;;;;;;35.13;17.27;;;;;;;;;;5050882;28;20021;-71
2021/03/03 12:10:16;;;;;;;25.17;15.88;;;;;;;;;;5044237;28;20079;-71
2021/03/03 12:12:42;;;;;;;21.40;15.43;;;;;;;;;;5048456;28;20017;-72
2021/03/03 12:15:10;;;;;;;27.13;15.95;;;;;;;;;;5045645;28;20033;-71
2021/03/03 12:17:38;;;;;;;23.92;16.77;;;;;;;;;;5046548;28;20044;-71
2021/03/03 12:20:05;;;;;;;25.27;16.40;;;;;;;;;;5024125;28;20049;-71
2021/03/03 12:22:30;;;;;;;27.35;15.85;;;;;;;;;;5051213;28;20017;-71
2021/03/03 12:24:55;;;;;;;25.27;16.63;;;;;;;;;;5039222;28;20021;-71
2021/03/03 12:27:20;;;;;;;24.03;16.43;;;;;;;;;;5056844;28;20089;-72
2021/03/03 12:29:46;;;;;;;27.30;16.55;;;;;;;;;;5056631;28;20266;-71
2021/03/03 12:32:11;;;;;;;23.40;16.92;;;;;;;;;;5056520;28;20021;-72
2021/03/03 12:34:41;;;;;;;27.77;16.73;;;;;;;;;;5056412;28;20032;-71
2021/03/03 12:37:09;;;;;;;28.40;18.30;;;;;;;;;;5030356;28;20025;-72
2021/03/03 12:39:34;;;;;;;31.42;16.88;;;;;;;;;;5044684;28;20112;-72
2021/03/03 12:41:59;;;;;;;35.93;18.50;;;;;;;;;;5027658;28;20476;-71
2021/03/03 12:44:24;;;;;;;28.37;18.03;;;;;;;;;;5042576;28;20310;-71
2021/03/03 12:46:50;;;;;;;26.97;17.13;;;;;;;;;;5048274;28;20371;-71
2021/03/03 12:49:15;;;;;;;29.17;16.70;;;;;;;;;;5038445;28;20573;-72
2021/03/03 12:51:40;;;;;;;30.63;16.67;;;;;;;;;;5056269;28;20048;-72
2021/03/03 12:54:06;;;;;;;26.00;16.73;;;;;;;;;;5056063;28;20329;-72
2021/03/03 12:56:31;;;;;;;30.50;17.05;;;;;;;;;;5045931;28;20032;-70
2021/03/03 12:58:56;;;;;;;36.35;17.85;;;;;;;;;;5055975;28;20059;-71
2021/03/03 13:01:21;;;;;;;31.77;16.87;;;;;;;;;;5056209;28;20104;-72
2021/03/03 13:03:46;;;;;;;27.17;17.80;;;;;;;;;;5055876;28;20576;-72
2021/03/03 13:06:14;;;;;;;29.17;16.30;;;;;;;;;;5038071;28;20768;-73
2021/03/03 13:08:40;;;;;;;29.98;16.95;;;;;;;;;;5041260;28;20860;-74
2021/03/03 13:11:06;;;;;;;31.80;16.50;;;;;;;;;;5037710;28;20264;-72
2021/03/03 13:13:31;;;;;;;30.00;17.52;;;;;;;;;;5053352;28;20256;-71
2021/03/03 13:15:57;;;;;;;31.23;17.10;;;;;;;;;;5037906;28;20462;-70
2021/03/03 13:18:25;;;;;;;31.73;17.35;;;;;;;;;;5055027;28;20048;-70
2021/03/03 13:20:51;;;;;;;29.33;17.38;;;;;;;;;;5044134;28;20025;-70
2021/03/03 13:23:19;;;;;;;32.08;24.00;;;;;;;;;;5036487;28;20036;-71
2021/03/03 13:25:44;;;;;;;29.25;17.90;;;;;;;;;;5055231;28;20040;-71
2021/03/03 13:28:12;;;;;;;32.53;18.33;;;;;;;;;;5049272;28;20017;-69
2021/03/03 13:30:39;;;;;;;35.30;17.38;;;;;;;;;;5032603;28;20096;-71
2021/03/03 13:33:04;;;;;;;28.80;17.48;;;;;;;;;;5055277;28;20032;-71
2021/03/03 13:35:29;;;;;;;30.35;17.17;;;;;;;;;;5055464;28;20025;-71
2021/03/03 13:37:54;;;;;;;27.37;17.20;;;;;;;;;;5055469;28;20032;-71
2021/03/03 13:40:22;;;;;;;27.33;16.67;;;;;;;;;;5055155;28;20259;-71
2021/03/03 13:42:47;;;;;;;31.15;16.52;;;;;;;;;;5055174;28;20056;-72
2021/03/03 13:45:13;;;;;;;26.17;15.57;;;;;;;;;;5040619;28;20438;-72
2021/03/03 13:47:38;;;;;;;28.27;17.35;;;;;;;;;;5034966;28;20030;-71
2021/03/03 13:50:04;;;;;;;26.73;16.10;;;;;;;;;;5034966;28;20113;-71
2021/03/03 13:52:29;;;;;;;31.90;16.40;;;;;;;;;;5038858;28;20321;-72
2021/03/03 13:54:55;;;;;;;33.13;17.53;;;;;;;;;;5043815;28;20364;-71
2021/03/03 13:57:20;;;;;;;29.37;16.20;;;;;;;;;;5054779;28;20510;-71
2021/03/03 13:59:45;;;;;;;25.17;16.27;;;;;;;;;;5054775;28;20731;-72
2021/03/03 14:02:10;;;;;;;27.07;15.93;;;;;;;;;;5054794;28;20025;-72
2021/03/03 14:04:35;;;;;;;25.97;16.37;;;;;;;;;;5044348;28;20315;-71
2021/03/03 14:07:01;;;;;;;32.85;17.80;;;;;;;;;;5046266;28;20045;-72
2021/03/03 14:09:28;;;;;;;29.00;16.77;;;;;;;;;;5036541;28;20518;-76
2021/03/03 14:11:54;;;;;;;25.80;16.00;;;;;;;;;;5034339;28;20022;-76
2021/03/03 14:14:19;;;;;;;34.80;16.35;;;;;;;;;;5033829;28;20013;-76
2021/03/03 14:16:44;;;;;;;26.17;15.80;;;;;;;;;;5045096;28;20073;-77
2021/03/03 14:19:12;;;;;;;25.95;16.25;;;;;;;;;;5054646;28;20088;-78